Time;durP1;ratioP1;P1;durP2;ratioP2;P2;SDS_P1;SDS_P2;PMS_P1;PMS_P2;Temp;Humidity;BMP_temperature;BMP_pressure;BME280_temperature;BME280_humidity;BME280_pressure;Samples;Min_cycle;Max_cycle;Signal;HPM_P1;HPM_P2
2022/10/27 00:00:29;;;;;;;4.30;2.50;;;21.70;99.90;;;;;;5033805;28;20535;-43
2022/10/27 00:02:56;;;;;;;5.53;2.80;;;21.70;99.90;;;;;;5035316;28;20470;-43
2022/10/27 00:05:23;;;;;;;4.33;3.33;;;21.70;99.90;;;;;;5037403;28;20489;-43
2022/10/27 00:07:49;;;;;;;2.70;2.50;;;21.70;99.90;;;;;;5044343;28;20861;-43
2022/10/27 00:10:17;;;;;;;4.13;2.57;;;21.70;99.90;;;;;;5047705;28;20457;-43
2022/10/27 00:12:44;;;;;;;3.93;3.50;;;21.60;99.90;;;;;;5048811;28;20853;-42
2022/10/27 00:15:11;;;;;;;4.23;3.17;;;21.60;99.90;;;;;;5040442;28;20466;-43
2022/10/27 00:17:40;;;;;;;3.20;2.20;;;21.60;99.90;;;;;;5038686;28;20477;-43
2022/10/27 00:20:08;;;;;;;2.60;2.20;;;21.60;99.90;;;;;;5039615;28;20857;-42
2022/10/27 00:22:35;;;;;;;3.00;2.67;;;21.70;99.90;;;;;;5037044;28;20461;-42
2022/10/27 00:25:02;;;;;;;3.60;2.50;;;21.70;99.90;;;;;;5042975;28;20856;-42
2022/10/27 00:27:29;;;;;;;8.33;3.67;;;21.70;99.90;;;;;;5046976;28;20780;-43
2022/10/27 00:29:56;;;;;;;2.70;2.47;;;21.70;99.90;;;;;;5046311;28;20466;-43
2022/10/27 00:32:23;;;;;;;3.97;3.57;;;21.70;99.90;;;;;;5038191;28;20940;-43
2022/10/27 00:34:51;;;;;;;2.93;2.60;;;21.70;99.90;;;;;;5034281;28;20519;-42
2022/10/27 00:37:18;;;;;;;3.80;3.00;;;21.70;99.90;;;;;;5038032;28;20462;-43
2022/10/27 00:39:44;;;;;;;2.73;2.53;;;21.70;99.90;;;;;;5039940;28;20972;-42
2022/10/27 00:42:12;;;;;;;4.53;2.70;;;21.70;99.90;;;;;;5042793;28;20941;-43
2022/10/27 00:44:40;;;;;;;2.90;2.07;;;21.60;99.90;;;;;;5042338;28;20486;-42
2022/10/27 00:47:14;;;;;;;2.93;2.60;;;21.60;99.90;;;;;;5033079;28;20463;-43
2022/10/27 00:49:45;;;;;;;3.80;2.37;;;21.60;99.90;;;;;;5042439;28;20450;-42
2022/10/27 00:52:20;;;;;;;3.27;2.63;;;21.60;99.90;;;;;;5035426;28;20470;-43
2022/10/27 00:54:48;;;;;;;2.43;2.23;;;21.60;99.90;;;;;;5043343;28;20519;-42
2022/10/27 00:57:15;;;;;;;3.10;2.80;;;21.60;99.90;;;;;;5042644;28;20470;-42
2022/10/27 00:59:42;;;;;;;2.67;2.47;;;21.60;99.90;;;;;;5044793;28;20458;-43
2022/10/27 01:02:10;;;;;;;3.43;2.50;;;21.60;99.90;;;;;;5041457;28;20465;-43
2022/10/27 01:04:44;;;;;;;2.50;2.20;;;21.60;99.90;;;;;;5040189;28;20560;-43
2022/10/27 01:07:13;;;;;;;3.10;2.40;;;21.50;99.90;;;;;;5032854;28;20817;-43
2022/10/27 01:09:43;;;;;;;2.40;2.20;;;21.60;99.90;;;;;;5042668;28;20466;-42
2022/10/27 01:12:09;;;;;;;2.80;2.50;;;21.50;99.90;;;;;;5040729;28;20453;-42
2022/10/27 01:14:37;;;;;;;2.90;2.40;;;21.50;99.90;;;;;;5035479;28;20469;-43
2022/10/27 01:17:11;;;;;;;2.87;2.50;;;21.50;99.90;;;;;;5032721;28;20482;-43
2022/10/27 01:20:11;;;;;;;3.20;2.90;;;21.50;99.90;;;;;;5044017;28;20456;-42
2022/10/27 01:22:43;;;;;;;2.60;2.40;;;21.50;99.90;;;;;;5014488;28;20484;-42
2022/10/27 01:25:26;;;;;;;2.77;2.30;;;21.50;99.90;;;;;;5044026;28;20484;-42
2022/10/27 01:28:22;;;;;;;2.67;2.17;;;21.40;99.90;;;;;;5032652;28;20457;-43
2022/10/27 01:31:01;;;;;;;2.50;2.20;;;21.40;99.90;;;;;;5042032;28;20810;-43
2022/10/27 01:33:35;;;;;;;2.00;1.80;;;21.40;99.90;;;;;;5042885;28;20458;-42
2022/10/27 01:36:05;;;;;;;3.03;2.20;;;21.40;99.90;;;;;;5042513;28;20465;-43
2022/10/27 01:38:38;;;;;;;3.03;2.37;;;21.40;99.90;;;;;;5038427;28;20469;-42
2022/10/27 01:41:11;;;;;;;2.43;1.87;;;21.40;99.90;;;;;;5031526;28;20462;-42
2022/10/27 01:43:39;;;;;;;2.80;2.10;;;21.40;99.90;;;;;;5041929;28;20459;-43
2022/10/27 01:46:10;;;;;;;2.33;2.13;;;21.30;99.90;;;;;;5039312;28;20517;-42
2022/10/27 01:48:38;;;;;;;2.90;2.60;;;21.30;99.90;;;;;;5039532;28;20456;-43
2022/10/27 01:51:06;;;;;;;2.00;1.80;;;21.30;99.90;;;;;;5037760;28;21010;-43
2022/10/27 01:53:40;;;;;;;2.90;2.13;;;21.30;99.90;;;;;;5046907;28;20244;-43
2022/10/27 01:56:34;;;;;;;3.17;1.90;;;21.30;99.90;;;;;;5043499;28;20458;-43
2022/10/27 01:59:32;;;;;;;3.03;2.40;;;21.30;99.90;;;;;;5036369;28;20459;-43
2022/10/27 02:02:09;;;;;;;2.73;2.33;;;21.20;99.90;;;;;;5047694;28;20446;-42
2022/10/27 02:04:45;;;;;;;2.63;2.43;;;21.20;99.90;;;;;;5043421;28;20983;-43
2022/10/27 02:07:17;;;;;;;2.20;1.90;;;21.20;99.90;;;;;;5043042;28;20460;-42
2022/10/27 02:09:48;;;;;;;2.40;2.20;;;21.20;99.90;;;;;;5051579;28;20986;-43
2022/10/27 02:12:20;;;;;;;3.10;1.90;;;21.20;99.90;;;;;;5048060;28;20821;-42
2022/10/27 02:14:49;;;;;;;2.72;2.33;;;21.20;99.90;;;;;;5051415;28;20963;-43
2022/10/27 02:17:19;;;;;;;2.30;2.00;;;21.10;99.90;;;;;;5033456;28;20227;-43
2022/10/27 02:19:48;;;;;;;2.33;2.00;;;21.10;99.90;;;;;;5044354;28;20195;-42
2022/10/27 02:22:15;;;;;;;2.30;2.10;;;21.10;99.90;;;;;;5039770;28;20980;-43
2022/10/27 02:24:42;;;;;;;2.65;2.35;;;21.10;99.90;;;;;;5040892;28;20199;-43
2022/10/27 02:27:15;;;;;;;2.97;2.03;;;21.10;99.90;;;;;;5047145;28;20230;-42
2022/10/27 02:29:45;;;;;;;3.65;2.40;;;21.10;99.90;;;;;;5040484;28;20211;-42
2022/10/27 02:32:15;;;;;;;3.45;2.60;;;21.10;99.90;;;;;;5036630;28;20196;-42
2022/10/27 02:34:44;;;;;;;2.40;2.10;;;21.00;99.90;;;;;;5043236;28;20203;-42
2022/10/27 02:37:18;;;;;;;3.40;2.20;;;21.00;99.90;;;;;;5033269;28;20746;-42
2022/10/27 02:39:44;;;;;;;2.05;1.70;;;21.00;99.90;;;;;;5036463;28;20476;-42
2022/10/27 02:42:11;;;;;;;3.40;2.50;;;21.00;99.90;;;;;;5034277;28;20567;-43
2022/10/27 02:44:38;;;;;;;2.27;2.03;;;21.00;99.90;;;;;;5032869;28;20215;-42
2022/10/27 02:47:04;;;;;;;2.72;2.00;;;21.00;99.90;;;;;;5036999;28;20496;-43
2022/10/27 02:49:31;;;;;;;2.80;2.50;;;20.90;99.90;;;;;;5043670;28;20199;-42
2022/10/27 02:52:01;;;;;;;2.30;2.10;;;20.90;99.90;;;;;;5041918;28;20462;-42
2022/10/27 02:54:28;;;;;;;3.40;2.78;;;20.90;99.90;;;;;;5042404;28;20457;-44
2022/10/27 02:56:54;;;;;;;2.67;2.47;;;20.90;99.90;;;;;;5039168;28;20191;-42
2022/10/27 02:59:21;;;;;;;2.73;2.20;;;20.90;99.90;;;;;;5044975;28;20622;-43
2022/10/27 03:01:48;;;;;;;2.30;2.10;;;20.80;99.90;;;;;;5037032;28;20462;-42
2022/10/27 03:04:14;;;;;;;3.17;2.20;;;20.80;99.90;;;;;;5037876;28;20192;-43
2022/10/27 03:06:41;;;;;;;2.47;2.28;;;20.80;99.90;;;;;;5038203;28;20276;-43
2022/10/27 03:09:09;;;;;;;2.90;1.80;;;20.80;99.90;;;;;;5042888;28;20240;-42
2022/10/27 03:11:36;;;;;;;2.60;2.22;;;20.80;99.90;;;;;;5041003;28;20453;-42
2022/10/27 03:14:02;;;;;;;2.10;1.50;;;20.80;99.90;;;;;;5031911;28;20701;-43
2022/10/27 03:16:29;;;;;;;2.20;2.00;;;20.80;99.90;;;;;;5034570;28;20284;-43
2022/10/27 03:18:56;;;;;;;2.45;2.15;;;20.70;99.90;;;;;;5037878;28;20199;-43
2022/10/27 03:21:23;;;;;;;2.75;2.15;;;20.70;99.90;;;;;;5038033;28;20203;-42
2022/10/27 03:23:50;;;;;;;1.90;1.80;;;20.70;99.90;;;;;;5036050;28;20199;-42
2022/10/27 03:26:18;;;;;;;1.85;1.65;;;20.70;99.90;;;;;;5040385;28;20284;-43
2022/10/27 03:28:44;;;;;;;2.58;2.00;;;20.70;99.90;;;;;;5031767;28;20196;-42
2022/10/27 03:31:11;;;;;;;1.70;1.55;;;20.70;99.90;;;;;;5031417;28;20203;-43
2022/10/27 03:33:38;;;;;;;1.92;1.73;;;20.70;99.90;;;;;;5036478;28;20192;-42
2022/10/27 03:36:05;;;;;;;2.38;2.05;;;20.70;99.90;;;;;;5030129;28;20638;-42
2022/10/27 03:38:32;;;;;;;2.35;2.15;;;20.60;99.90;;;;;;5038321;28;20222;-42
2022/10/27 03:40:58;;;;;;;2.00;1.80;;;20.60;99.90;;;;;;5031786;28;20207;-42
2022/10/27 03:43:26;;;;;;;3.30;1.92;;;20.60;99.90;;;;;;5036187;28;20192;-43
2022/10/27 03:45:53;;;;;;;1.83;1.73;;;20.60;99.90;;;;;;5034408;28;20278;-42
2022/10/27 03:48:20;;;;;;;2.22;2.03;;;21.00;99.90;;;;;;5037324;28;20655;-42
2022/10/27 03:50:48;;;;;;;2.22;2.03;;;21.30;99.90;;;;;;5036628;28;20195;-43
2022/10/27 03:53:15;;;;;;;2.63;1.90;;;21.40;99.90;;;;;;5037046;28;20210;-42
2022/10/27 03:55:42;;;;;;;2.80;2.37;;;21.50;99.90;;;;;;5038007;28;20527;-42
2022/10/27 03:58:11;;;;;;;2.33;1.97;;;21.70;99.90;;;;;;5039931;28;20465;-43
2022/10/27 04:00:39;;;;;;;1.57;1.47;;;21.80;99.90;;;;;;5033846;28;20461;-42
2022/10/27 04:03:07;;;;;;;2.30;2.10;;;21.80;99.90;;;;;;5047362;28;20466;-42
2022/10/27 04:05:34;;;;;;;1.50;1.40;;;21.80;99.90;;;;;;5037458;28;21074;-42
2022/10/27 04:08:00;;;;;;;1.60;1.50;;;21.80;99.90;;;;;;5030468;28;20466;-43
2022/10/27 04:10:27;;;;;;;2.03;1.93;;;21.90;99.90;;;;;;5036995;28;20548;-42
2022/10/27 04:12:56;;;;;;;2.43;2.23;;;21.90;99.90;;;;;;5036648;28;20464;-42
2022/10/27 04:15:24;;;;;;;1.93;1.73;;;21.90;99.90;;;;;;5034969;28;20523;-42
2022/10/27 04:17:54;;;;;;;2.90;1.73;;;21.90;99.90;;;;;;5032533;28;20490;-42
2022/10/27 04:20:21;;;;;;;2.03;1.83;;;21.90;99.90;;;;;;5034402;28;21237;-42
2022/10/27 04:22:48;;;;;;;2.13;1.93;;;21.90;99.90;;;;;;5036385;28;20519;-42
2022/10/27 04:25:15;;;;;;;1.90;1.70;;;21.90;99.90;;;;;;5033493;28;20516;-43
2022/10/27 04:27:41;;;;;;;1.97;1.67;;;21.80;99.90;;;;;;5038817;28;20454;-42
2022/10/27 04:30:09;;;;;;;2.20;2.00;;;21.80;99.90;;;;;;5042820;28;20472;-42
2022/10/27 04:32:36;;;;;;;2.13;1.90;;;21.70;99.90;;;;;;5045062;28;20454;-43
2022/10/27 04:35:04;;;;;;;2.23;2.03;;;21.70;99.90;;;;;;5040256;28;20473;-43
2022/10/27 04:37:31;;;;;;;1.77;1.67;;;21.70;99.90;;;;;;5038007;28;20457;-42
2022/10/27 04:39:58;;;;;;;1.97;1.77;;;21.60;99.90;;;;;;5040899;28;20488;-43
2022/10/27 04:42:24;;;;;;;1.80;1.70;;;21.60;99.90;;;;;;5043898;28;20460;-42
2022/10/27 04:44:51;;;;;;;2.23;1.83;;;21.50;99.90;;;;;;5035234;28;20466;-42
2022/10/27 04:47:18;;;;;;;2.10;1.77;;;21.50;99.90;;;;;;5032886;28;20477;-43
2022/10/27 04:49:44;;;;;;;1.93;1.50;;;21.50;99.90;;;;;;5042035;28;20472;-43
2022/10/27 04:52:12;;;;;;;2.77;2.00;;;21.50;99.90;;;;;;5034608;28;20462;-43
2022/10/27 04:54:39;;;;;;;2.20;1.70;;;21.40;99.90;;;;;;5037107;28;20457;-42
2022/10/27 04:57:06;;;;;;;1.90;1.70;;;21.40;99.90;;;;;;5032565;28;20465;-42
2022/10/27 04:59:33;;;;;;;1.50;1.40;;;21.30;99.90;;;;;;5036865;28;20464;-42
2022/10/27 05:01:59;;;;;;;1.70;1.60;;;21.30;99.90;;;;;;5040459;28;20458;-42
2022/10/27 05:04:26;;;;;;;2.13;1.83;;;21.30;99.90;;;;;;5040412;28;20461;-42
2022/10/27 05:06:53;;;;;;;2.30;1.93;;;21.30;99.90;;;;;;5042531;28;20481;-43
2022/10/27 05:09:21;;;;;;;2.30;1.70;;;21.30;99.90;;;;;;5039453;28;20469;-43
2022/10/27 05:11:47;;;;;;;2.03;1.70;;;21.30;99.90;;;;;;5035626;28;20454;-43
2022/10/27 05:14:14;;;;;;;1.77;1.47;;;21.30;99.90;;;;;;5040174;28;21144;-42
2022/10/27 05:16:41;;;;;;;1.53;1.40;;;21.30;99.90;;;;;;5041927;28;20478;-43
2022/10/27 05:19:07;;;;;;;2.00;1.80;;;21.30;99.90;;;;;;5036502;28;20944;-43
2022/10/27 05:21:34;;;;;;;1.73;1.63;;;21.20;99.90;;;;;;5043276;28;20490;-42
2022/10/27 05:24:01;;;;;;;1.90;1.77;;;21.20;99.90;;;;;;5038771;28;20461;-43
2022/10/27 05:26:29;;;;;;;2.00;1.80;;;21.30;99.90;;;;;;5041051;28;20937;-43
2022/10/27 05:28:55;;;;;;;1.70;1.50;;;21.30;99.90;;;;;;5038893;28;20453;-43
2022/10/27 05:31:22;;;;;;;1.93;1.63;;;21.30;99.90;;;;;;5034861;28;20493;-42
2022/10/27 05:33:49;;;;;;;2.83;1.83;;;21.40;99.90;;;;;;5037382;28;20466;-43
2022/10/27 05:36:15;;;;;;;1.50;1.40;;;21.40;99.90;;;;;;5038354;28;20507;-42
2022/10/27 05:38:44;;;;;;;1.80;1.50;;;21.40;99.90;;;;;;5038117;28;20465;-42
2022/10/27 05:41:11;;;;;;;1.60;1.50;;;21.40;99.90;;;;;;5040302;28;20461;-42
2022/10/27 05:43:40;;;;;;;1.50;1.37;;;21.50;99.90;;;;;;5035924;28;20507;-42
2022/10/27 05:46:07;;;;;;;1.70;1.60;;;21.50;99.90;;;;;;5038182;28;20476;-42
2022/10/27 05:48:34;;;;;;;1.87;1.77;;;21.50;99.90;;;;;;5037371;28;20938;-42
2022/10/27 05:51:00;;;;;;;1.80;1.70;;;21.50;99.90;;;;;;5039134;28;20458;-43
2022/10/27 05:53:27;;;;;;;2.00;1.90;;;21.60;99.90;;;;;;5033831;28;20458;-39
2022/10/27 05:55:54;;;;;;;1.50;1.40;;;21.60;99.90;;;;;;5039902;28;20462;-43
2022/10/27 05:58:21;;;;;;;2.87;1.87;;;21.60;99.90;;;;;;5032882;28;20484;-42
2022/10/27 06:00:49;;;;;;;1.60;1.50;;;21.60;99.90;;;;;;5036582;28;20458;-43
2022/10/27 06:03:20;;;;;;;2.50;1.87;;;21.60;99.90;;;;;;5036408;28;20458;-40
2022/10/27 06:05:47;;;;;;;4.83;1.60;;;21.60;99.90;;;;;;5038948;28;20453;-42
2022/10/27 06:08:14;;;;;;;1.57;1.40;;;21.70;99.90;;;;;;5035972;28;20462;-41
2022/10/27 06:10:41;;;;;;;2.10;1.80;;;21.80;99.90;;;;;;5036759;28;20992;-42
2022/10/27 06:13:10;;;;;;;2.07;1.70;;;21.80;99.90;;;;;;5036923;28;20469;-40
2022/10/27 06:15:38;;;;;;;2.33;2.13;;;21.80;99.90;;;;;;5034397;28;20449;-41
2022/10/27 06:18:06;;;;;;;2.10;1.80;;;21.70;99.90;;;;;;5036679;28;20478;-40
2022/10/27 06:20:33;;;;;;;1.90;1.70;;;21.70;99.90;;;;;;5038654;28;20481;-41
2022/10/27 06:23:00;;;;;;;2.20;2.00;;;21.60;99.90;;;;;;5039928;28;20829;-39
2022/10/27 06:25:27;;;;;;;1.83;1.37;;;21.60;99.90;;;;;;5047853;28;20466;-40
2022/10/27 06:27:53;;;;;;;2.60;1.57;;;21.60;99.90;;;;;;5044665;28;20512;-41
2022/10/27 06:30:20;;;;;;;2.20;1.73;;;21.60;99.90;;;;;;5040903;28;20462;-39
2022/10/27 06:32:47;;;;;;;2.53;2.33;;;21.50;99.90;;;;;;5045912;28;20519;-39
2022/10/27 06:35:15;;;;;;;3.37;2.70;;;21.50;99.90;;;;;;5044808;28;20470;-40
2022/10/27 06:37:44;;;;;;;3.37;2.70;;;21.40;99.90;;;;;;5035404;28;20466;-42
2022/10/27 06:40:12;;;;;;;12.57;2.20;;;21.30;99.90;;;;;;5039444;28;20462;-42
2022/10/27 06:42:39;;;;;;;7.20;2.80;;;21.40;99.90;;;;;;5042436;28;20441;-40
2022/10/27 06:45:07;;;;;;;4.43;2.60;;;21.30;99.90;;;;;;5048477;28;21054;-42
2022/10/27 06:47:33;;;;;;;4.60;2.70;;;21.30;99.90;;;;;;5041426;28;20480;-38
2022/10/27 06:50:00;;;;;;;5.67;2.70;;;21.30;99.90;;;;;;5043289;28;20822;-36
2022/10/27 06:52:28;;;;;;;6.30;2.80;;;21.30;99.90;;;;;;5039863;28;20550;-39
2022/10/27 06:54:55;;;;;;;5.33;2.20;;;21.40;99.90;;;;;;5039968;28;20480;-39
2022/10/27 06:57:21;;;;;;;6.43;2.87;;;21.30;99.90;;;;;;5039345;28;20762;-38
2022/10/27 06:59:48;;;;;;;7.83;2.80;;;21.40;99.90;;;;;;5044032;28;20567;-39
2022/10/27 07:02:15;;;;;;;7.40;2.67;;;21.40;99.90;;;;;;5038842;28;20460;-39
2022/10/27 07:04:41;;;;;;;3.20;2.70;;;21.40;99.90;;;;;;5037124;28;20450;-38
2022/10/27 07:07:08;;;;;;;7.60;2.50;;;21.50;99.90;;;;;;5041429;28;20470;-39
2022/10/27 07:09:36;;;;;;;2.80;1.93;;;21.50;99.90;;;;;;5032048;28;20458;-37
2022/10/27 07:12:03;;;;;;;4.43;2.67;;;21.50;99.90;;;;;;5033174;28;20455;-41
2022/10/27 07:14:30;;;;;;;4.30;2.90;;;21.50;99.90;;;;;;5034391;28;20466;-40
2022/10/27 07:16:58;;;;;;;2.90;2.47;;;21.50;99.90;;;;;;5034926;28;20482;-39
2022/10/27 07:19:25;;;;;;;10.13;2.57;;;21.50;99.90;;;;;;5040490;28;20461;-38
2022/10/27 07:21:51;;;;;;;4.43;2.30;;;21.60;99.90;;;;;;5036309;28;20461;-39
2022/10/27 07:24:18;;;;;;;6.53;3.20;;;21.60;99.90;;;;;;5032125;28;20466;-38
2022/10/27 07:26:46;;;;;;;4.37;2.40;;;21.60;99.90;;;;;;5031559;28;20476;-38
2022/10/27 07:29:13;;;;;;;2.90;2.57;;;21.60;99.90;;;;;;5040656;28;20828;-39
2022/10/27 07:31:39;;;;;;;3.57;3.27;;;21.60;99.90;;;;;;5039228;28;20458;-39
2022/10/27 07:34:06;;;;;;;4.67;4.03;;;21.60;99.90;;;;;;5036255;28;20457;-39
2022/10/27 07:36:33;;;;;;;8.13;5.33;;;21.50;99.90;;;;;;5037947;28;20457;-40
2022/10/27 07:38:59;;;;;;;6.40;5.17;;;21.60;99.90;;;;;;5041250;28;20480;-38
2022/10/27 07:41:26;;;;;;;10.80;4.20;;;21.60;99.90;;;;;;5037719;28;20467;-40
2022/10/27 07:43:54;;;;;;;12.23;3.90;;;21.70;99.90;;;;;;5033411;28;20557;-43
2022/10/27 07:46:21;;;;;;;4.60;3.33;;;21.80;99.90;;;;;;5032265;28;20969;-41
2022/10/27 07:48:48;;;;;;;11.03;4.57;;;21.70;99.90;;;;;;5034726;28;20462;-38
2022/10/27 07:51:14;;;;;;;5.40;3.30;;;21.80;99.90;;;;;;5040540;28;20491;-41
2022/10/27 07:53:41;;;;;;;4.00;3.53;;;21.80;99.90;;;;;;5035858;28;20454;-40
2022/10/27 07:56:08;;;;;;;4.47;3.90;;;21.80;99.90;;;;;;5040251;28;20516;-42
2022/10/27 07:58:34;;;;;;;10.17;5.23;;;21.90;99.90;;;;;;5042996;28;20474;-41
2022/10/27 08:01:04;;;;;;;5.33;3.10;;;21.90;99.90;;;;;;5037428;28;20462;-41
2022/10/27 08:03:31;;;;;;;6.47;3.40;;;21.80;99.90;;;;;;5039635;28;20454;-41
2022/10/27 08:06:01;;;;;;;3.43;3.13;;;21.80;99.90;;;;;;5041647;28;20465;-42
2022/10/27 08:08:29;;;;;;;3.50;3.20;;;21.80;99.90;;;;;;5040631;28;20477;-41
2022/10/27 08:10:56;;;;;;;5.23;3.40;;;21.80;99.90;;;;;;5040236;28;20458;-41
2022/10/27 08:13:22;;;;;;;5.07;3.40;;;21.80;99.90;;;;;;5045878;28;20462;-39
2022/10/27 08:15:49;;;;;;;6.00;3.63;;;21.80;99.90;;;;;;5040359;28;20520;-41
2022/10/27 08:18:17;;;;;;;5.53;3.90;;;21.90;99.90;;;;;;5034543;28;20465;-42
2022/10/27 08:20:46;;;;;;;5.27;3.83;;;22.00;99.90;;;;;;5034343;28;20466;-41
2022/10/27 08:23:15;;;;;;;4.23;3.00;;;22.00;99.90;;;;;;5043501;28;20454;-42
2022/10/27 08:25:42;;;;;;;5.07;3.27;;;22.10;99.90;;;;;;5050846;28;20457;-41
2022/10/27 08:28:10;;;;;;;4.60;2.90;;;22.10;99.90;;;;;;5049147;28;20976;-41
2022/10/27 08:30:36;;;;;;;7.90;3.90;;;22.10;99.90;;;;;;5049158;28;20519;-41
2022/10/27 08:33:05;;;;;;;6.10;3.10;;;22.20;99.90;;;;;;5044036;28;20458;-44
2022/10/27 08:35:34;;;;;;;3.50;3.00;;;22.20;99.90;;;;;;5037950;28;20461;-41
2022/10/27 08:38:03;;;;;;;6.13;3.40;;;22.20;99.90;;;;;;5046569;28;20864;-39
2022/10/27 08:40:37;;;;;;;3.83;3.10;;;22.20;99.90;;;;;;5043059;28;20861;-41
2022/10/27 08:43:22;;;;;;;6.53;3.33;;;22.30;99.90;;;;;;5038961;28;20849;-43
2022/10/27 08:45:55;;;;;;;5.00;3.30;;;22.40;99.90;;;;;;5038904;28;20477;-43
2022/10/27 08:48:25;;;;;;;8.10;2.60;;;22.40;99.90;;;;;;5033051;28;20544;-44
2022/10/27 08:50:54;;;;;;;2.27;1.80;;;22.40;99.90;;;;;;5037745;28;20469;-41
2022/10/27 08:53:28;;;;;;;3.83;3.07;;;22.50;99.90;;;;;;5039933;28;20790;-40
2022/10/27 08:56:00;;;;;;;4.50;4.00;;;22.50;99.90;;;;;;5042128;28;20465;-41
2022/10/27 08:58:34;;;;;;;4.80;2.60;;;22.50;99.90;;;;;;5043194;28;20469;-41
2022/10/27 09:01:05;;;;;;;3.40;3.10;;;22.60;99.90;;;;;;5041533;28;20465;-41
2022/10/27 09:03:45;;;;;;;2.90;2.53;;;22.60;99.90;;;;;;5043329;28;20875;-41
2022/10/27 09:06:18;;;;;;;3.27;2.87;;;22.60;99.90;;;;;;5039827;28;20469;-41
2022/10/27 09:08:50;;;;;;;3.50;3.07;;;22.60;99.90;;;;;;5034754;28;20489;-43
2022/10/27 09:11:25;;;;;;;2.93;2.70;;;22.60;99.90;;;;;;5046862;28;20555;-42
2022/10/27 09:14:07;;;;;;;3.57;2.67;;;22.60;99.90;;;;;;5044037;28;20952;-42
2022/10/27 09:16:40;;;;;;;3.20;2.90;;;22.60;99.90;;;;;;5045466;28;20474;-42
2022/10/27 09:19:14;;;;;;;2.93;2.73;;;22.60;99.90;;;;;;5047948;28;20523;-41
2022/10/27 09:21:43;;;;;;;5.00;2.43;;;22.50;99.90;;;;;;5045003;28;20461;-41
2022/10/27 09:24:13;;;;;;;4.97;3.17;;;22.50;99.90;;;;;;5038680;28;21969;-48
2022/10/27 09:26:41;;;;;;;4.90;3.10;;;22.50;99.90;;;;;;5036147;28;20465;-45
2022/10/27 09:29:16;;;;;;;2.23;2.03;;;22.50;99.90;;;;;;5044241;28;20488;-45
2022/10/27 09:31:48;;;;;;;2.77;1.90;;;22.50;99.90;;;;;;5046367;28;20464;-46
2022/10/27 09:34:18;;;;;;;3.00;2.70;;;22.50;99.90;;;;;;5036880;28;20459;-45
2022/10/27 09:36:46;;;;;;;2.50;2.00;;;22.50;99.90;;;;;;5040103;28;20837;-45
2022/10/27 09:39:13;;;;;;;3.30;2.80;;;22.50;99.90;;;;;;5037352;28;20462;-43
2022/10/27 09:41:40;;;;;;;2.60;2.40;;;22.60;99.90;;;;;;5045690;28;20465;-44
2022/10/27 09:44:17;;;;;;;3.90;2.70;;;22.60;99.90;;;;;;5038550;28;20914;-45
2022/10/27 09:46:48;;;;;;;2.40;1.87;;;22.60;99.90;;;;;;5036094;28;20984;-43
2022/10/27 09:49:16;;;;;;;2.33;2.13;;;22.60;99.90;;;;;;5037919;28;20489;-46
2022/10/27 09:51:49;;;;;;;2.10;1.90;;;22.60;99.90;;;;;;5037794;28;20461;-45
2022/10/27 09:54:30;;;;;;;2.57;2.07;;;22.60;99.90;;;;;;5035119;28;20958;-45
2022/10/27 09:57:06;;;;;;;3.00;2.07;;;22.70;99.90;;;;;;5040568;28;20461;-46
2022/10/27 09:59:35;;;;;;;4.07;2.37;;;22.70;99.90;;;;;;5043742;28;20457;-44
2022/10/27 10:02:05;;;;;;;3.80;2.20;;;22.70;99.90;;;;;;5036662;28;20482;-46
2022/10/27 10:04:34;;;;;;;4.20;2.43;;;22.70;99.90;;;;;;5044283;28;20470;-44
2022/10/27 10:07:05;;;;;;;3.70;2.60;;;22.70;99.90;;;;;;5039232;28;20458;-45
2022/10/27 10:09:33;;;;;;;3.50;2.30;;;22.70;99.90;;;;;;5031054;28;20469;-45
2022/10/27 10:12:23;;;;;;;2.23;2.03;;;22.70;99.90;;;;;;5039289;28;20509;-42
2022/10/27 10:14:50;;;;;;;3.73;2.33;;;22.70;99.90;;;;;;5036626;28;20458;-42
2022/10/27 10:17:21;;;;;;;4.00;1.70;;;22.70;99.90;;;;;;5037453;28;20481;-45
2022/10/27 10:19:49;;;;;;;3.43;2.27;;;22.80;99.90;;;;;;5038052;28;20561;-47
2022/10/27 10:22:23;;;;;;;3.37;2.80;;;22.80;99.90;;;;;;5035670;28;20833;-47
2022/10/27 10:24:51;;;;;;;2.07;1.77;;;22.80;99.90;;;;;;5037116;28;20457;-48
2022/10/27 10:27:29;;;;;;;4.17;1.97;;;22.80;99.90;;;;;;5048879;28;20453;-47
2022/10/27 10:29:59;;;;;;;2.70;1.80;;;22.90;99.90;;;;;;5035592;28;20465;-47
2022/10/27 10:32:28;;;;;;;2.53;2.20;;;22.90;99.90;;;;;;5038903;28;20477;-44
2022/10/27 10:34:55;;;;;;;3.37;2.00;;;22.90;99.90;;;;;;5044751;28;20457;-45
2022/10/27 10:37:32;;;;;;;1.93;1.77;;;23.00;99.90;;;;;;5032636;28;20453;-47
2022/10/27 10:40:26;;;;;;;1.97;1.77;;;22.90;99.90;;;;;;5041011;28;20975;-47
2022/10/27 10:43:02;;;;;;;2.70;1.63;;;22.90;99.90;;;;;;5033442;28;20496;-46
2022/10/27 10:45:30;;;;;;;4.33;2.43;;;22.90;99.90;;;;;;5037869;28;20464;-44
2022/10/27 10:47:59;;;;;;;3.00;2.20;;;23.00;99.90;;;;;;5033402;28;20510;-47
2022/10/27 10:50:27;;;;;;;1.90;1.70;;;23.00;99.90;;;;;;5042126;28;20472;-46
2022/10/27 10:52:57;;;;;;;2.23;2.03;;;23.00;99.90;;;;;;5038381;28;20764;-47
2022/10/27 10:55:28;;;;;;;2.27;2.07;;;23.00;99.90;;;;;;5038221;28;20454;-46
2022/10/27 10:57:56;;;;;;;3.30;2.23;;;23.10;99.90;;;;;;5037565;28;20469;-45
2022/10/27 11:00:23;;;;;;;1.80;1.70;;;23.10;99.90;;;;;;5047912;28;20458;-46
2022/10/27 11:02:53;;;;;;;2.67;1.90;;;23.10;99.90;;;;;;5034767;28;20451;-43
2022/10/27 11:05:24;;;;;;;1.73;1.63;;;23.10;99.90;;;;;;5037679;28;20588;-44
2022/10/27 11:07:51;;;;;;;4.47;2.17;;;23.10;99.90;;;;;;5042600;28;20477;-26
2022/10/27 11:10:22;;;;;;;3.80;1.80;;;22.90;99.90;;;;;;5041972;28;20478;-26
2022/10/27 11:12:52;;;;;;;2.17;1.47;;;22.50;99.90;;;;;;5041458;28;20540;-28
2022/10/27 11:15:26;;;;;;;3.90;1.50;;;22.50;99.90;;;;;;5038393;28;20453;-28
2022/10/27 11:17:57;;;;;;;5.63;1.80;;;22.60;99.90;;;;;;5030937;28;20572;-28
2022/10/27 11:20:26;;;;;;;5.03;1.60;;;22.50;99.90;;;;;;5038416;28;20524;-29
2022/10/27 11:22:54;;;;;;;2.20;1.20;;;22.60;99.90;;;;;;5037098;28;20459;-28
2022/10/27 11:25:26;;;;;;;5.30;1.77;;;22.60;99.90;;;;;;5040992;28;20464;-27
2022/10/27 11:28:03;;;;;;;1.60;1.37;;;22.60;99.90;;;;;;5037799;28;20486;-29
2022/10/27 11:30:30;;;;;;;3.27;1.57;;;22.60;99.90;;;;;;5034770;28;20457;-28
2022/10/27 11:33:08;;;;;;;3.40;1.90;;;22.70;99.90;;;;;;5036746;28;20465;-26
2022/10/27 11:35:41;;;;;;;4.00;2.60;;;22.70;99.90;;;;;;5043127;28;20480;-26
2022/10/27 11:38:15;;;;;;;4.50;2.37;;;22.60;99.90;;;;;;5044542;28;20463;-26
2022/10/27 11:40:50;;;;;;;6.13;1.37;;;22.70;99.90;;;;;;5034293;28;20948;-26
2022/10/27 11:43:22;;;;;;;4.70;1.90;;;22.60;99.90;;;;;;5036913;28;20458;-26
2022/10/27 11:45:55;;;;;;;4.10;1.40;;;22.60;99.90;;;;;;5042205;28;20461;-26
2022/10/27 11:48:27;;;;;;;4.90;1.73;;;22.50;99.90;;;;;;5039842;28;20481;-26
2022/10/27 11:50:57;;;;;;;4.20;1.80;;;22.60;99.90;;;;;;5037409;28;20465;-26
2022/10/27 11:53:24;;;;;;;3.73;1.30;;;22.60;99.90;;;;;;5036648;28;20474;-27
2022/10/27 11:56:16;;;;;;;3.80;1.73;;;22.60;99.90;;;;;;5044168;28;20458;-27
2022/10/27 11:58:52;;;;;;;3.07;1.70;;;22.60;99.90;;;;;;5040510;28;22009;-26
2022/10/27 12:01:29;;;;;;;4.27;1.60;;;22.50;99.90;;;;;;5044609;28;21318;-27
2022/10/27 12:04:10;;;;;;;2.90;1.53;;;22.60;99.90;;;;;;5041482;28;20458;-27
2022/10/27 12:06:46;;;;;;;3.00;2.07;;;22.50;99.90;;;;;;5037965;28;20476;-27
2022/10/27 12:09:20;;;;;;;3.60;1.73;;;22.50;99.90;;;;;;5038443;28;20481;-27
2022/10/27 12:11:58;;;;;;;3.63;1.70;;;22.50;99.90;;;;;;5049472;28;20499;-26
2022/10/27 12:14:30;;;;;;;5.13;2.53;;;22.60;99.90;;;;;;5049365;28;20454;-27
2022/10/27 12:17:04;;;;;;;8.73;2.30;;;22.50;99.90;;;;;;5036899;28;20473;-27
2022/10/27 12:19:35;;;;;;;7.80;1.67;;;22.50;99.90;;;;;;5051236;28;20932;-26
2022/10/27 12:22:07;;;;;;;8.40;1.90;;;22.60;99.90;;;;;;5039842;28;20466;-27
2022/10/27 12:24:39;;;;;;;5.43;2.27;;;22.40;99.90;;;;;;5037185;28;20469;-26
2022/10/27 12:27:13;;;;;;;5.33;2.00;;;22.50;99.90;;;;;;5047549;28;20514;-25
2022/10/27 12:29:45;;;;;;;5.53;2.03;;;22.60;99.90;;;;;;5045975;28;20480;-25
2022/10/27 12:32:17;;;;;;;4.37;2.33;;;22.60;99.90;;;;;;5041977;28;20955;-25
2022/10/27 12:34:50;;;;;;;3.97;1.93;;;22.60;99.90;;;;;;5042086;28;20469;-25
2022/10/27 12:37:21;;;;;;;3.00;1.80;;;22.60;99.90;;;;;;5039902;28;20466;-26
2022/10/27 12:39:55;;;;;;;3.20;1.53;;;22.60;99.90;;;;;;5042054;28;20454;-25
2022/10/27 12:42:30;;;;;;;3.67;2.10;;;22.50;99.90;;;;;;5039565;28;20807;-25
2022/10/27 12:45:06;;;;;;;2.10;1.60;;;22.60;99.90;;;;;;5042420;28;20825;-26
2022/10/27 12:47:43;;;;;;;5.50;2.77;;;22.50;99.90;;;;;;5036302;28;20506;-25
2022/10/27 12:50:21;;;;;;;4.60;1.63;;;22.50;99.90;;;;;;5036442;28;20484;-25
2022/10/27 12:52:56;;;;;;;3.00;1.60;;;22.50;99.90;;;;;;5045776;28;20456;-25
2022/10/27 12:55:32;;;;;;;7.30;1.97;;;22.50;99.90;;;;;;5045199;28;20817;-24
2022/10/27 12:58:03;;;;;;;5.43;2.50;;;22.50;99.90;;;;;;5048422;28;20461;-25